<?xml version='1.0' encoding='UTF-8'?>
<gpx xmlns="http://www.topografix.com/GPX/1/1" creator="www.balnam.be" version="1.1" xmlns:xsi="http://www.w3.org/2001/XMLSchema-instance" xsi:schemaLocation="http://www.topografix.com/GPX/1/1 http://www.topografix.com/GPX/1/1/gpx.xsd">
<trk>
<name>xnsns4</name>
<cmt>r</cmt>
<desc>Nassogne Chemin n°4 </desc>
<link href="https://chemins.be/nassogne/chemin/4"/><trkseg>
<trkpt lat="50.125763" lon="5.352033"><time>2026-05-03T04:30:10Z</time></trkpt>
<trkpt lat="50.126517" lon="5.353154"><time>2026-05-03T04:40:10Z</time></trkpt>
<trkpt lat="50.126370" lon="5.355654"><time>2026-05-03T04:50:10Z</time></trkpt>
<trkpt lat="50.127204" lon="5.362175"><time>2026-05-03T05:00:10Z</time></trkpt>
<trkpt lat="50.127880" lon="5.366217"><time>2026-05-03T05:10:10Z</time></trkpt>
<trkpt lat="50.127847" lon="5.366860"><time>2026-05-03T05:20:10Z</time></trkpt>
<trkpt lat="50.127182" lon="5.376147"><time>2026-05-03T05:30:10Z</time></trkpt>
</trkseg></trk>
<trk>
<name>xnsns4</name>
<cmt>v</cmt>
<desc>Nassogne Chemin n°4 </desc>
<link href="https://chemins.be/nassogne/chemin/4"/><trkseg>
<trkpt lat="50.127182" lon="5.376147"><time>2026-05-03T05:30:10Z</time></trkpt>
<trkpt lat="50.126054" lon="5.378711"><time>2026-05-03T05:40:10Z</time></trkpt>
<trkpt lat="50.121427" lon="5.385424"><time>2026-05-03T05:50:10Z</time></trkpt>
<trkpt lat="50.120873" lon="5.387076"><time>2026-05-03T06:00:10Z</time></trkpt>
<trkpt lat="50.120532" lon="5.390061"><time>2026-05-03T06:10:10Z</time></trkpt>
</trkseg></trk>
<trk>
<name>xnsns4</name>
<cmt>d</cmt>
<desc>Nassogne Chemin n°4 </desc>
<link href="https://chemins.be/nassogne/chemin/4"/><trkseg>
<trkpt lat="50.120532" lon="5.390061"><time>2026-05-03T06:10:10Z</time></trkpt>
<trkpt lat="50.118556" lon="5.393865"><time>2026-05-03T06:20:10Z</time></trkpt>
</trkseg></trk>
<trk>
<name>xnsns4</name>
<cmt>v</cmt>
<desc>Nassogne Chemin n°4 </desc>
<link href="https://chemins.be/nassogne/chemin/4"/><trkseg>
<trkpt lat="50.118556" lon="5.393865"><time>2026-05-03T06:20:10Z</time></trkpt>
<trkpt lat="50.117411" lon="5.396040"><time>2026-05-03T06:30:10Z</time></trkpt>
<trkpt lat="50.116421" lon="5.396406"><time>2026-05-03T06:40:10Z</time></trkpt>
<trkpt lat="50.115961" lon="5.396908"><time>2026-05-03T06:50:10Z</time></trkpt>
<trkpt lat="50.115251" lon="5.400410"><time>2026-05-03T07:00:10Z</time></trkpt>
</trkseg></trk>
<trk>
<name>xnsns4</name>
<cmt>d</cmt>
<desc>Nassogne Chemin n°4 </desc>
<link href="https://chemins.be/nassogne/chemin/4"/><trkseg>
<trkpt lat="50.115251" lon="5.400410"><time>2026-05-03T07:00:10Z</time></trkpt>
<trkpt lat="50.114741" lon="5.402215"><time>2026-05-03T07:10:10Z</time></trkpt>
<trkpt lat="50.113861" lon="5.403174"><time>2026-05-03T07:20:10Z</time></trkpt>
<trkpt lat="50.112161" lon="5.403249"><time>2026-05-03T07:30:10Z</time></trkpt>
<trkpt lat="50.111467" lon="5.403332"><time>2026-05-03T07:40:10Z</time></trkpt>
<trkpt lat="50.110357" lon="5.403881"><time>2026-05-03T07:50:10Z</time></trkpt>
<trkpt lat="50.109550" lon="5.403528"><time>2026-05-03T08:00:10Z</time></trkpt>
<trkpt lat="50.109080" lon="5.403868"><time>2026-05-03T08:10:10Z</time></trkpt>
<trkpt lat="50.106908" lon="5.403457"><time>2026-05-03T08:20:10Z</time></trkpt>
<trkpt lat="50.106487" lon="5.403238"><time>2026-05-03T08:30:10Z</time></trkpt>
<trkpt lat="50.106143" lon="5.403510"><time>2026-05-03T08:40:10Z</time></trkpt>
</trkseg>
</trk>
</gpx>